sensor_id;sensor_type;location;lat;lon;timestamp;P1;durP1;ratioP1;P2;durP2;ratioP2
23782;SDS011;12071;50.850;4.446;2023-10-31T00:02:10;32.22;;;18.30;;
23782;SDS011;12071;50.850;4.446;2023-10-31T00:04:36;30.33;;;17.67;;
23782;SDS011;12071;50.850;4.446;2023-10-31T00:07:02;29.08;;;17.65;;
23782;SDS011;12071;50.850;4.446;2023-10-31T00:09:28;33.83;;;17.75;;
23782;SDS011;12071;50.850;4.446;2023-10-31T00:11:55;31.23;;;18.13;;
23782;SDS011;12071;50.850;4.446;2023-10-31T00:14:22;29.92;;;17.75;;
23782;SDS011;12071;50.850;4.446;2023-10-31T00:16:48;26.85;;;17.33;;
23782;SDS011;12071;50.850;4.446;2023-10-31T00:19:13;27.00;;;16.27;;
23782;SDS011;12071;50.850;4.446;2023-10-31T00:21:39;29.05;;;17.15;;
23782;SDS011;12071;50.850;4.446;2023-10-31T00:24:05;26.85;;;15.32;;
23782;SDS011;12071;50.850;4.446;2023-10-31T00:26:31;25.02;;;15.65;;
23782;SDS011;12071;50.850;4.446;2023-10-31T00:28:56;23.73;;;14.70;;
23782;SDS011;12071;50.850;4.446;2023-10-31T00:31:22;18.35;;;13.23;;
23782;SDS011;12071;50.850;4.446;2023-10-31T00:33:48;23.50;;;13.80;;
23782;SDS011;12071;50.850;4.446;2023-10-31T00:36:13;24.58;;;13.70;;
23782;SDS011;12071;50.850;4.446;2023-10-31T00:38:39;19.67;;;13.10;;
23782;SDS011;12071;50.850;4.446;2023-10-31T00:41:05;20.33;;;12.23;;
23782;SDS011;12071;50.850;4.446;2023-10-31T00:43:30;18.15;;;12.15;;
23782;SDS011;12071;50.850;4.446;2023-10-31T00:45:56;16.60;;;11.20;;
23782;SDS011;12071;50.850;4.446;2023-10-31T00:48:22;13.55;;;10.52;;
23782;SDS011;12071;50.850;4.446;2023-10-31T00:50:48;14.20;;;10.63;;
23782;SDS011;12071;50.850;4.446;2023-10-31T00:53:13;13.60;;;10.32;;
23782;SDS011;12071;50.850;4.446;2023-10-31T00:55:40;16.58;;;9.73;;
23782;SDS011;12071;50.850;4.446;2023-10-31T00:58:06;13.80;;;9.73;;
23782;SDS011;12071;50.850;4.446;2023-10-31T01:00:31;11.93;;;8.48;;
23782;SDS011;12071;50.850;4.446;2023-10-31T01:02:59;13.30;;;9.45;;
23782;SDS011;12071;50.850;4.446;2023-10-31T01:05:24;12.80;;;9.25;;
23782;SDS011;12071;50.850;4.446;2023-10-31T01:07:51;13.25;;;9.80;;
23782;SDS011;12071;50.850;4.446;2023-10-31T01:10:17;16.25;;;9.90;;
23782;SDS011;12071;50.850;4.446;2023-10-31T01:12:43;13.10;;;9.07;;
23782;SDS011;12071;50.850;4.446;2023-10-31T01:15:08;11.82;;;8.82;;
23782;SDS011;12071;50.850;4.446;2023-10-31T01:17:34;12.02;;;9.30;;
23782;SDS011;12071;50.850;4.446;2023-10-31T01:20:00;14.05;;;10.02;;
23782;SDS011;12071;50.850;4.446;2023-10-31T01:22:25;12.15;;;9.38;;
23782;SDS011;12071;50.850;4.446;2023-10-31T01:24:51;13.43;;;9.85;;
23782;SDS011;12071;50.850;4.446;2023-10-31T01:27:17;13.68;;;9.57;;
23782;SDS011;12071;50.850;4.446;2023-10-31T01:29:43;12.52;;;9.80;;
23782;SDS011;12071;50.850;4.446;2023-10-31T01:32:08;15.18;;;9.95;;
23782;SDS011;12071;50.850;4.446;2023-10-31T01:34:34;14.10;;;9.77;;
23782;SDS011;12071;50.850;4.446;2023-10-31T01:37:00;12.35;;;8.50;;
23782;SDS011;12071;50.850;4.446;2023-10-31T01:39:25;11.18;;;9.77;;
23782;SDS011;12071;50.850;4.446;2023-10-31T01:41:51;14.30;;;9.15;;
23782;SDS011;12071;50.850;4.446;2023-10-31T01:44:19;12.65;;;10.05;;
23782;SDS011;12071;50.850;4.446;2023-10-31T01:46:45;11.73;;;8.95;;
23782;SDS011;12071;50.850;4.446;2023-10-31T01:49:11;14.82;;;9.68;;
23782;SDS011;12071;50.850;4.446;2023-10-31T01:51:37;15.63;;;9.38;;
23782;SDS011;12071;50.850;4.446;2023-10-31T01:54:03;11.27;;;9.00;;
23782;SDS011;12071;50.850;4.446;2023-10-31T01:56:29;11.45;;;8.93;;
23782;SDS011;12071;50.850;4.446;2023-10-31T01:58:55;11.80;;;8.35;;
23782;SDS011;12071;50.850;4.446;2023-10-31T02:01:20;12.02;;;8.88;;
23782;SDS011;12071;50.850;4.446;2023-10-31T02:03:47;11.80;;;8.63;;
23782;SDS011;12071;50.850;4.446;2023-10-31T02:06:13;10.05;;;8.25;;
23782;SDS011;12071;50.850;4.446;2023-10-31T02:08:38;13.00;;;9.15;;
23782;SDS011;12071;50.850;4.446;2023-10-31T02:11:04;11.68;;;9.32;;
23782;SDS011;12071;50.850;4.446;2023-10-31T02:13:35;12.05;;;8.90;;
23782;SDS011;12071;50.850;4.446;2023-10-31T02:16:01;10.48;;;8.82;;
23782;SDS011;12071;50.850;4.446;2023-10-31T02:18:27;12.38;;;9.13;;
23782;SDS011;12071;50.850;4.446;2023-10-31T02:20:53;11.25;;;8.73;;
23782;SDS011;12071;50.850;4.446;2023-10-31T02:23:18;11.77;;;8.45;;
23782;SDS011;12071;50.850;4.446;2023-10-31T02:25:44;11.32;;;8.48;;
23782;SDS011;12071;50.850;4.446;2023-10-31T02:28:09;10.35;;;9.02;;
23782;SDS011;12071;50.850;4.446;2023-10-31T02:30:35;9.00;;;8.10;;
23782;SDS011;12071;50.850;4.446;2023-10-31T02:33:01;12.38;;;9.35;;
23782;SDS011;12071;50.850;4.446;2023-10-31T02:35:27;12.48;;;8.05;;
23782;SDS011;12071;50.850;4.446;2023-10-31T02:37:53;11.02;;;9.07;;
23782;SDS011;12071;50.850;4.446;2023-10-31T02:40:19;11.68;;;8.90;;
23782;SDS011;12071;50.850;4.446;2023-10-31T02:42:44;10.90;;;8.82;;
23782;SDS011;12071;50.850;4.446;2023-10-31T02:45:11;11.68;;;9.88;;
23782;SDS011;12071;50.850;4.446;2023-10-31T02:47:36;12.07;;;8.35;;
23782;SDS011;12071;50.850;4.446;2023-10-31T02:50:02;9.82;;;8.82;;
23782;SDS011;12071;50.850;4.446;2023-10-31T02:52:28;11.13;;;8.63;;
23782;SDS011;12071;50.850;4.446;2023-10-31T02:54:54;11.43;;;8.43;;
23782;SDS011;12071;50.850;4.446;2023-10-31T02:57:20;11.27;;;9.35;;
23782;SDS011;12071;50.850;4.446;2023-10-31T02:59:45;9.77;;;8.70;;
23782;SDS011;12071;50.850;4.446;2023-10-31T03:02:11;13.95;;;9.60;;
23782;SDS011;12071;50.850;4.446;2023-10-31T03:04:37;10.52;;;9.07;;
23782;SDS011;12071;50.850;4.446;2023-10-31T03:07:03;11.32;;;8.80;;
23782;SDS011;12071;50.850;4.446;2023-10-31T03:09:29;10.25;;;9.18;;
23782;SDS011;12071;50.850;4.446;2023-10-31T03:11:54;10.27;;;8.98;;
23782;SDS011;12071;50.850;4.446;2023-10-31T03:14:20;10.43;;;8.85;;
23782;SDS011;12071;50.850;4.446;2023-10-31T03:16:46;13.02;;;9.75;;
23782;SDS011;12071;50.850;4.446;2023-10-31T03:19:11;13.60;;;9.93;;
23782;SDS011;12071;50.850;4.446;2023-10-31T03:21:37;16.48;;;10.48;;
23782;SDS011;12071;50.850;4.446;2023-10-31T03:24:03;13.10;;;10.30;;
23782;SDS011;12071;50.850;4.446;2023-10-31T03:26:29;14.57;;;10.27;;
23782;SDS011;12071;50.850;4.446;2023-10-31T03:28:55;14.32;;;11.73;;
23782;SDS011;12071;50.850;4.446;2023-10-31T03:31:22;15.43;;;12.10;;
23782;SDS011;12071;50.850;4.446;2023-10-31T03:33:48;14.98;;;12.48;;
23782;SDS011;12071;50.850;4.446;2023-10-31T03:36:14;13.25;;;11.20;;
23782;SDS011;12071;50.850;4.446;2023-10-31T03:38:40;14.30;;;12.13;;
23782;SDS011;12071;50.850;4.446;2023-10-31T03:41:06;15.05;;;12.23;;
23782;SDS011;12071;50.850;4.446;2023-10-31T03:43:31;19.30;;;12.75;;
23782;SDS011;12071;50.850;4.446;2023-10-31T03:45:57;16.92;;;12.68;;
23782;SDS011;12071;50.850;4.446;2023-10-31T03:48:23;16.75;;;13.85;;
23782;SDS011;12071;50.850;4.446;2023-10-31T03:50:48;14.95;;;12.82;;
23782;SDS011;12071;50.850;4.446;2023-10-31T03:53:15;14.02;;;10.80;;
23782;SDS011;12071;50.850;4.446;2023-10-31T03:55:41;14.07;;;11.75;;
23782;SDS011;12071;50.850;4.446;2023-10-31T03:58:07;17.27;;;11.90;;
23782;SDS011;12071;50.850;4.446;2023-10-31T04:00:32;14.23;;;11.20;;
23782;SDS011;12071;50.850;4.446;2023-10-31T04:02:58;14.00;;;10.40;;
23782;SDS011;12071;50.850;4.446;2023-10-31T04:05:24;13.25;;;11.68;;
23782;SDS011;12071;50.850;4.446;2023-10-31T04:07:50;15.45;;;12.13;;
23782;SDS011;12071;50.850;4.446;2023-10-31T04:10:16;15.98;;;12.57;;
23782;SDS011;12071;50.850;4.446;2023-10-31T04:12:43;15.85;;;13.65;;
23782;SDS011;12071;50.850;4.446;2023-10-31T04:15:09;16.38;;;13.82;;
23782;SDS011;12071;50.850;4.446;2023-10-31T04:17:34;18.35;;;13.80;;
23782;SDS011;12071;50.850;4.446;2023-10-31T04:20:01;21.75;;;15.60;;
23782;SDS011;12071;50.850;4.446;2023-10-31T04:22:27;18.15;;;13.45;;
23782;SDS011;12071;50.850;4.446;2023-10-31T04:24:52;17.33;;;13.88;;
23782;SDS011;12071;50.850;4.446;2023-10-31T04:27:18;16.23;;;12.85;;
23782;SDS011;12071;50.850;4.446;2023-10-31T04:29:44;18.58;;;12.85;;
23782;SDS011;12071;50.850;4.446;2023-10-31T04:32:10;17.63;;;13.15;;
23782;SDS011;12071;50.850;4.446;2023-10-31T04:34:36;16.40;;;13.23;;
23782;SDS011;12071;50.850;4.446;2023-10-31T04:37:01;18.48;;;13.52;;
23782;SDS011;12071;50.850;4.446;2023-10-31T04:39:27;18.27;;;14.02;;
23782;SDS011;12071;50.850;4.446;2023-10-31T04:41:53;16.63;;;13.18;;
23782;SDS011;12071;50.850;4.446;2023-10-31T04:44:18;17.98;;;13.55;;
23782;SDS011;12071;50.850;4.446;2023-10-31T04:46:44;17.05;;;12.73;;
23782;SDS011;12071;50.850;4.446;2023-10-31T04:49:10;18.55;;;13.82;;
23782;SDS011;12071;50.850;4.446;2023-10-31T04:51:36;19.20;;;14.00;;
23782;SDS011;12071;50.850;4.446;2023-10-31T04:54:02;20.45;;;14.95;;
23782;SDS011;12071;50.850;4.446;2023-10-31T04:56:29;21.23;;;14.00;;
23782;SDS011;12071;50.850;4.446;2023-10-31T04:58:54;20.80;;;14.77;;
23782;SDS011;12071;50.850;4.446;2023-10-31T05:01:20;21.42;;;14.35;;
23782;SDS011;12071;50.850;4.446;2023-10-31T05:03:45;23.73;;;15.02;;
23782;SDS011;12071;50.850;4.446;2023-10-31T05:06:11;19.52;;;15.65;;
23782;SDS011;12071;50.850;4.446;2023-10-31T05:08:37;22.42;;;16.23;;
23782;SDS011;12071;50.850;4.446;2023-10-31T05:11:02;22.13;;;15.15;;
23782;SDS011;12071;50.850;4.446;2023-10-31T05:13:28;20.90;;;15.75;;
23782;SDS011;12071;50.850;4.446;2023-10-31T05:15:54;22.67;;;14.45;;
23782;SDS011;12071;50.850;4.446;2023-10-31T05:18:20;22.92;;;15.57;;
23782;SDS011;12071;50.850;4.446;2023-10-31T05:20:46;20.58;;;15.30;;
23782;SDS011;12071;50.850;4.446;2023-10-31T05:23:13;20.95;;;15.65;;
23782;SDS011;12071;50.850;4.446;2023-10-31T05:25:39;22.35;;;16.08;;
23782;SDS011;12071;50.850;4.446;2023-10-31T05:28:05;21.40;;;15.70;;
23782;SDS011;12071;50.850;4.446;2023-10-31T05:30:31;21.10;;;14.60;;
23782;SDS011;12071;50.850;4.446;2023-10-31T05:32:56;21.48;;;15.80;;
23782;SDS011;12071;50.850;4.446;2023-10-31T05:35:22;18.30;;;14.93;;
23782;SDS011;12071;50.850;4.446;2023-10-31T05:37:48;16.38;;;12.70;;
23782;SDS011;12071;50.850;4.446;2023-10-31T05:40:14;15.52;;;13.00;;
23782;SDS011;12071;50.850;4.446;2023-10-31T05:42:41;17.20;;;13.35;;
23782;SDS011;12071;50.850;4.446;2023-10-31T05:45:08;16.15;;;13.63;;
23782;SDS011;12071;50.850;4.446;2023-10-31T05:47:34;17.15;;;14.27;;
23782;SDS011;12071;50.850;4.446;2023-10-31T05:49:59;17.10;;;13.32;;
23782;SDS011;12071;50.850;4.446;2023-10-31T05:52:28;16.95;;;13.52;;
23782;SDS011;12071;50.850;4.446;2023-10-31T05:54:55;17.77;;;14.10;;
23782;SDS011;12071;50.850;4.446;2023-10-31T05:57:21;19.75;;;14.23;;
23782;SDS011;12071;50.850;4.446;2023-10-31T05:59:46;20.17;;;14.48;;
23782;SDS011;12071;50.850;4.446;2023-10-31T06:02:13;18.90;;;14.10;;
23782;SDS011;12071;50.850;4.446;2023-10-31T06:04:39;18.17;;;14.48;;
23782;SDS011;12071;50.850;4.446;2023-10-31T06:07:05;17.13;;;13.70;;
23782;SDS011;12071;50.850;4.446;2023-10-31T06:09:31;21.45;;;14.00;;
23782;SDS011;12071;50.850;4.446;2023-10-31T06:11:58;17.42;;;12.75;;
23782;SDS011;12071;50.850;4.446;2023-10-31T06:14:24;17.05;;;12.75;;
23782;SDS011;12071;50.850;4.446;2023-10-31T06:16:50;17.65;;;13.35;;
23782;SDS011;12071;50.850;4.446;2023-10-31T06:19:16;19.15;;;13.35;;
23782;SDS011;12071;50.850;4.446;2023-10-31T06:21:42;15.00;;;12.43;;
23782;SDS011;12071;50.850;4.446;2023-10-31T06:24:08;17.17;;;12.80;;
23782;SDS011;12071;50.850;4.446;2023-10-31T06:26:34;16.77;;;12.27;;
23782;SDS011;12071;50.850;4.446;2023-10-31T06:29:00;16.15;;;11.77;;
23782;SDS011;12071;50.850;4.446;2023-10-31T06:31:26;17.10;;;11.60;;
23782;SDS011;12071;50.850;4.446;2023-10-31T06:33:51;16.95;;;11.90;;
23782;SDS011;12071;50.850;4.446;2023-10-31T06:36:17;17.83;;;11.82;;
23782;SDS011;12071;50.850;4.446;2023-10-31T06:38:43;14.90;;;11.18;;
23782;SDS011;12071;50.850;4.446;2023-10-31T06:41:08;13.60;;;11.25;;
23782;SDS011;12071;50.850;4.446;2023-10-31T06:43:34;12.55;;;10.75;;
23782;SDS011;12071;50.850;4.446;2023-10-31T06:46:00;16.00;;;10.77;;
23782;SDS011;12071;50.850;4.446;2023-10-31T06:48:27;13.30;;;11.15;;
23782;SDS011;12071;50.850;4.446;2023-10-31T06:50:53;13.75;;;10.98;;
23782;SDS011;12071;50.850;4.446;2023-10-31T06:53:18;15.32;;;10.05;;
23782;SDS011;12071;50.850;4.446;2023-10-31T06:55:44;12.73;;;10.82;;
23782;SDS011;12071;50.850;4.446;2023-10-31T06:58:10;12.32;;;10.45;;
23782;SDS011;12071;50.850;4.446;2023-10-31T07:00:35;13.52;;;9.52;;
23782;SDS011;12071;50.850;4.446;2023-10-31T07:03:03;16.35;;;10.32;;
23782;SDS011;12071;50.850;4.446;2023-10-31T07:05:34;13.00;;;9.80;;
23782;SDS011;12071;50.850;4.446;2023-10-31T07:08:00;11.93;;;10.23;;
23782;SDS011;12071;50.850;4.446;2023-10-31T07:10:29;12.43;;;10.00;;
23782;SDS011;12071;50.850;4.446;2023-10-31T07:12:55;11.73;;;9.98;;
23782;SDS011;12071;50.850;4.446;2023-10-31T07:15:20;12.25;;;9.38;;
23782;SDS011;12071;50.850;4.446;2023-10-31T07:17:46;10.98;;;9.18;;
23782;SDS011;12071;50.850;4.446;2023-10-31T07:20:12;10.65;;;9.55;;
23782;SDS011;12071;50.850;4.446;2023-10-31T07:22:39;12.35;;;9.10;;
23782;SDS011;12071;50.850;4.446;2023-10-31T07:25:06;14.40;;;10.02;;
23782;SDS011;12071;50.850;4.446;2023-10-31T07:27:32;12.80;;;9.82;;
23782;SDS011;12071;50.850;4.446;2023-10-31T07:29:58;15.75;;;8.98;;
23782;SDS011;12071;50.850;4.446;2023-10-31T07:32:24;10.38;;;9.00;;
23782;SDS011;12071;50.850;4.446;2023-10-31T07:34:50;13.55;;;8.85;;
23782;SDS011;12071;50.850;4.446;2023-10-31T07:37:16;12.30;;;9.23;;
23782;SDS011;12071;50.850;4.446;2023-10-31T07:39:42;10.90;;;8.80;;
23782;SDS011;12071;50.850;4.446;2023-10-31T07:42:07;12.77;;;8.90;;
23782;SDS011;12071;50.850;4.446;2023-10-31T07:44:33;11.60;;;9.07;;
23782;SDS011;12071;50.850;4.446;2023-10-31T07:46:59;13.45;;;8.82;;
23782;SDS011;12071;50.850;4.446;2023-10-31T07:49:25;9.63;;;8.50;;
23782;SDS011;12071;50.850;4.446;2023-10-31T07:51:50;12.77;;;9.18;;
23782;SDS011;12071;50.850;4.446;2023-10-31T07:54:16;12.00;;;8.07;;
23782;SDS011;12071;50.850;4.446;2023-10-31T07:56:42;12.38;;;8.48;;
23782;SDS011;12071;50.850;4.446;2023-10-31T07:59:08;13.80;;;8.32;;
23782;SDS011;12071;50.850;4.446;2023-10-31T08:01:34;10.68;;;7.63;;
23782;SDS011;12071;50.850;4.446;2023-10-31T08:04:00;16.27;;;8.07;;
23782;SDS011;12071;50.850;4.446;2023-10-31T08:06:26;9.60;;;8.00;;
23782;SDS011;12071;50.850;4.446;2023-10-31T08:08:51;9.27;;;7.38;;
23782;SDS011;12071;50.850;4.446;2023-10-31T08:11:17;10.90;;;7.80;;
23782;SDS011;12071;50.850;4.446;2023-10-31T08:13:43;10.20;;;7.40;;
23782;SDS011;12071;50.850;4.446;2023-10-31T08:16:09;8.68;;;7.22;;
23782;SDS011;12071;50.850;4.446;2023-10-31T08:18:34;8.75;;;7.25;;
23782;SDS011;12071;50.850;4.446;2023-10-31T08:21:00;10.27;;;6.82;;
23782;SDS011;12071;50.850;4.446;2023-10-31T08:23:26;9.63;;;6.88;;
23782;SDS011;12071;50.850;4.446;2023-10-31T08:25:53;9.57;;;6.22;;
23782;SDS011;12071;50.850;4.446;2023-10-31T08:28:19;7.50;;;5.88;;
23782;SDS011;12071;50.850;4.446;2023-10-31T08:30:44;12.40;;;6.03;;
23782;SDS011;12071;50.850;4.446;2023-10-31T08:33:11;6.95;;;5.53;;
23782;SDS011;12071;50.850;4.446;2023-10-31T08:35:36;9.00;;;6.28;;
23782;SDS011;12071;50.850;4.446;2023-10-31T08:38:03;10.13;;;6.43;;
23782;SDS011;12071;50.850;4.446;2023-10-31T08:40:28;10.63;;;6.30;;
23782;SDS011;12071;50.850;4.446;2023-10-31T08:42:54;12.85;;;8.40;;
23782;SDS011;12071;50.850;4.446;2023-10-31T08:45:20;11.70;;;6.32;;
23782;SDS011;12071;50.850;4.446;2023-10-31T08:47:46;8.90;;;5.72;;
23782;SDS011;12071;50.850;4.446;2023-10-31T08:50:12;9.13;;;6.00;;
23782;SDS011;12071;50.850;4.446;2023-10-31T08:52:38;12.15;;;5.82;;
23782;SDS011;12071;50.850;4.446;2023-10-31T08:55:04;6.85;;;5.05;;
23782;SDS011;12071;50.850;4.446;2023-10-31T08:57:31;10.73;;;5.22;;
23782;SDS011;12071;50.850;4.446;2023-10-31T08:59:58;8.50;;;5.60;;
23782;SDS011;12071;50.850;4.446;2023-10-31T09:02:25;8.88;;;5.70;;
23782;SDS011;12071;50.850;4.446;2023-10-31T09:04:51;8.80;;;5.22;;
23782;SDS011;12071;50.850;4.446;2023-10-31T09:07:16;13.18;;;7.18;;
23782;SDS011;12071;50.850;4.446;2023-10-31T09:09:42;7.82;;;4.88;;
23782;SDS011;12071;50.850;4.446;2023-10-31T09:12:07;10.40;;;6.78;;
23782;SDS011;12071;50.850;4.446;2023-10-31T09:14:34;5.90;;;3.90;;
23782;SDS011;12071;50.850;4.446;2023-10-31T09:17:00;7.57;;;4.32;;
23782;SDS011;12071;50.850;4.446;2023-10-31T09:19:26;12.25;;;4.45;;
23782;SDS011;12071;50.850;4.446;2023-10-31T09:21:52;8.93;;;5.22;;
23782;SDS011;12071;50.850;4.446;2023-10-31T09:24:17;7.10;;;4.88;;
23782;SDS011;12071;50.850;4.446;2023-10-31T09:26:43;9.73;;;3.92;;
23782;SDS011;12071;50.850;4.446;2023-10-31T09:29:10;6.45;;;3.65;;
23782;SDS011;12071;50.850;4.446;2023-10-31T09:31:36;9.82;;;3.45;;
23782;SDS011;12071;50.850;4.446;2023-10-31T09:34:01;5.72;;;3.58;;
23782;SDS011;12071;50.850;4.446;2023-10-31T09:36:28;7.72;;;3.47;;
23782;SDS011;12071;50.850;4.446;2023-10-31T09:38:57;9.30;;;4.05;;
23782;SDS011;12071;50.850;4.446;2023-10-31T09:41:22;9.25;;;4.00;;
23782;SDS011;12071;50.850;4.446;2023-10-31T09:43:48;6.57;;;3.47;;
23782;SDS011;12071;50.850;4.446;2023-10-31T09:46:14;7.70;;;3.53;;
23782;SDS011;12071;50.850;4.446;2023-10-31T09:48:41;8.02;;;3.85;;
23782;SDS011;12071;50.850;4.446;2023-10-31T09:51:07;10.75;;;4.03;;
23782;SDS011;12071;50.850;4.446;2023-10-31T09:53:33;10.18;;;4.40;;
23782;SDS011;12071;50.850;4.446;2023-10-31T09:56:02;11.88;;;4.80;;
23782;SDS011;12071;50.850;4.446;2023-10-31T09:58:28;11.02;;;4.90;;
23782;SDS011;12071;50.850;4.446;2023-10-31T10:00:54;12.15;;;6.00;;
23782;SDS011;12071;50.850;4.446;2023-10-31T10:03:20;11.27;;;5.22;;
23782;SDS011;12071;50.850;4.446;2023-10-31T10:05:46;9.32;;;5.00;;
23782;SDS011;12071;50.850;4.446;2023-10-31T10:08:14;8.00;;;4.97;;
23782;SDS011;12071;50.850;4.446;2023-10-31T10:10:40;7.93;;;4.93;;
23782;SDS011;12071;50.850;4.446;2023-10-31T10:13:06;7.63;;;4.15;;
23782;SDS011;12071;50.850;4.446;2023-10-31T10:15:45;10.50;;;4.85;;
23782;SDS011;12071;50.850;4.446;2023-10-31T10:20:58;9.50;;;5.97;;
23782;SDS011;12071;50.850;4.446;2023-10-31T10:23:26;8.88;;;6.63;;
23782;SDS011;12071;50.850;4.446;2023-10-31T10:25:55;11.23;;;6.68;;
23782;SDS011;12071;50.850;4.446;2023-10-31T10:28:22;16.50;;;7.68;;
23782;SDS011;12071;50.850;4.446;2023-10-31T10:30:52;15.70;;;6.97;;
23782;SDS011;12071;50.850;4.446;2023-10-31T10:33:18;11.32;;;6.78;;
23782;SDS011;12071;50.850;4.446;2023-10-31T10:35:45;10.30;;;6.32;;
23782;SDS011;12071;50.850;4.446;2023-10-31T10:38:11;9.80;;;5.03;;
23782;SDS011;12071;50.850;4.446;2023-10-31T10:40:47;11.13;;;5.55;;
23782;SDS011;12071;50.850;4.446;2023-10-31T10:43:20;13.30;;;6.25;;
23782;SDS011;12071;50.850;4.446;2023-10-31T10:45:51;15.40;;;6.18;;
23782;SDS011;12071;50.850;4.446;2023-10-31T10:48:21;12.63;;;6.18;;
23782;SDS011;12071;50.850;4.446;2023-10-31T10:50:50;14.60;;;6.43;;
23782;SDS011;12071;50.850;4.446;2023-10-31T10:53:24;15.18;;;6.60;;
23782;SDS011;12071;50.850;4.446;2023-10-31T10:55:55;13.88;;;6.88;;
23782;SDS011;12071;50.850;4.446;2023-10-31T10:58:26;14.02;;;6.35;;
23782;SDS011;12071;50.850;4.446;2023-10-31T11:00:59;13.93;;;6.75;;
23782;SDS011;12071;50.850;4.446;2023-10-31T11:03:26;16.40;;;7.50;;
23782;SDS011;12071;50.850;4.446;2023-10-31T11:05:52;16.92;;;8.60;;
23782;SDS011;12071;50.850;4.446;2023-10-31T11:08:20;18.25;;;8.13;;
23782;SDS011;12071;50.850;4.446;2023-10-31T11:10:46;16.95;;;8.93;;
23782;SDS011;12071;50.850;4.446;2023-10-31T11:13:13;18.63;;;9.93;;
23782;SDS011;12071;50.850;4.446;2023-10-31T11:15:39;20.25;;;10.13;;
23782;SDS011;12071;50.850;4.446;2023-10-31T11:18:07;17.73;;;9.45;;
23782;SDS011;12071;50.850;4.446;2023-10-31T11:20:34;20.35;;;10.70;;
23782;SDS011;12071;50.850;4.446;2023-10-31T11:23:01;21.25;;;10.85;;
23782;SDS011;12071;50.850;4.446;2023-10-31T11:25:31;19.92;;;9.73;;
23782;SDS011;12071;50.850;4.446;2023-10-31T11:28:10;16.50;;;10.38;;
23782;SDS011;12071;50.850;4.446;2023-10-31T11:30:40;17.80;;;9.52;;
23782;SDS011;12071;50.850;4.446;2023-10-31T11:33:11;17.15;;;9.50;;
23782;SDS011;12071;50.850;4.446;2023-10-31T11:35:38;21.38;;;10.25;;
23782;SDS011;12071;50.850;4.446;2023-10-31T11:38:06;16.33;;;8.95;;
23782;SDS011;12071;50.850;4.446;2023-10-31T11:40:33;16.50;;;9.25;;
23782;SDS011;12071;50.850;4.446;2023-10-31T11:43:03;18.55;;;8.82;;
23782;SDS011;12071;50.850;4.446;2023-10-31T11:45:43;16.65;;;8.73;;
23782;SDS011;12071;50.850;4.446;2023-10-31T11:48:12;16.98;;;8.10;;
23782;SDS011;12071;50.850;4.446;2023-10-31T11:50:38;15.93;;;8.63;;
23782;SDS011;12071;50.850;4.446;2023-10-31T11:55:43;14.00;;;8.48;;
23782;SDS011;12071;50.850;4.446;2023-10-31T12:00:38;12.75;;;7.75;;
23782;SDS011;12071;50.850;4.446;2023-10-31T12:03:03;20.02;;;7.95;;
23782;SDS011;12071;50.850;4.446;2023-10-31T12:05:29;16.30;;;7.75;;
23782;SDS011;12071;50.850;4.446;2023-10-31T12:07:55;12.68;;;7.57;;
23782;SDS011;12071;50.850;4.446;2023-10-31T12:10:22;12.20;;;6.35;;
23782;SDS011;12071;50.850;4.446;2023-10-31T12:12:49;10.25;;;6.00;;
23782;SDS011;12071;50.850;4.446;2023-10-31T12:15:15;9.95;;;5.93;;
23782;SDS011;12071;50.850;4.446;2023-10-31T12:17:41;10.38;;;5.75;;
23782;SDS011;12071;50.850;4.446;2023-10-31T12:20:07;6.45;;;4.93;;
23782;SDS011;12071;50.850;4.446;2023-10-31T12:22:37;12.27;;;6.28;;
23782;SDS011;12071;50.850;4.446;2023-10-31T12:25:03;11.52;;;5.95;;
23782;SDS011;12071;50.850;4.446;2023-10-31T12:27:42;10.38;;;6.40;;
23782;SDS011;12071;50.850;4.446;2023-10-31T12:30:14;6.85;;;4.75;;
23782;SDS011;12071;50.850;4.446;2023-10-31T12:32:43;9.40;;;5.68;;
23782;SDS011;12071;50.850;4.446;2023-10-31T12:35:10;10.32;;;5.70;;
23782;SDS011;12071;50.850;4.446;2023-10-31T12:37:45;8.65;;;5.60;;
23782;SDS011;12071;50.850;4.446;2023-10-31T12:40:12;8.15;;;4.95;;
23782;SDS011;12071;50.850;4.446;2023-10-31T12:42:44;10.10;;;4.97;;
23782;SDS011;12071;50.850;4.446;2023-10-31T12:45:11;11.20;;;5.63;;
23782;SDS011;12071;50.850;4.446;2023-10-31T12:47:37;7.60;;;4.47;;
23782;SDS011;12071;50.850;4.446;2023-10-31T12:52:52;6.95;;;3.92;;
23782;SDS011;12071;50.850;4.446;2023-10-31T12:55:20;6.80;;;3.63;;
23782;SDS011;12071;50.850;4.446;2023-10-31T12:57:47;6.40;;;3.80;;
23782;SDS011;12071;50.850;4.446;2023-10-31T13:00:14;6.05;;;3.60;;
23782;SDS011;12071;50.850;4.446;2023-10-31T13:02:41;5.10;;;3.53;;
23782;SDS011;12071;50.850;4.446;2023-10-31T13:05:14;8.27;;;3.33;;
23782;SDS011;12071;50.850;4.446;2023-10-31T13:07:49;5.38;;;3.30;;
23782;SDS011;12071;50.850;4.446;2023-10-31T13:10:20;4.53;;;2.95;;
23782;SDS011;12071;50.850;4.446;2023-10-31T13:12:50;3.65;;;2.60;;
23782;SDS011;12071;50.850;4.446;2023-10-31T13:15:16;5.93;;;2.60;;
23782;SDS011;12071;50.850;4.446;2023-10-31T13:17:46;5.40;;;3.17;;
23782;SDS011;12071;50.850;4.446;2023-10-31T13:20:13;4.40;;;2.75;;
23782;SDS011;12071;50.850;4.446;2023-10-31T13:22:40;4.10;;;2.70;;
23782;SDS011;12071;50.850;4.446;2023-10-31T13:25:10;4.22;;;2.80;;
23782;SDS011;12071;50.850;4.446;2023-10-31T13:30:05;5.15;;;3.00;;
23782;SDS011;12071;50.850;4.446;2023-10-31T13:32:32;5.32;;;3.58;;
23782;SDS011;12071;50.850;4.446;2023-10-31T13:34:58;8.90;;;4.50;;
23782;SDS011;12071;50.850;4.446;2023-10-31T13:37:24;5.97;;;4.72;;
23782;SDS011;12071;50.850;4.446;2023-10-31T13:39:50;6.93;;;4.78;;
23782;SDS011;12071;50.850;4.446;2023-10-31T13:42:16;9.50;;;4.80;;
23782;SDS011;12071;50.850;4.446;2023-10-31T13:44:41;9.57;;;4.88;;
23782;SDS011;12071;50.850;4.446;2023-10-31T13:47:07;9.45;;;5.50;;
23782;SDS011;12071;50.850;4.446;2023-10-31T13:49:34;9.93;;;6.05;;
23782;SDS011;12071;50.850;4.446;2023-10-31T13:52:00;10.27;;;6.13;;
23782;SDS011;12071;50.850;4.446;2023-10-31T13:54:25;10.82;;;6.28;;
23782;SDS011;12071;50.850;4.446;2023-10-31T13:56:51;9.93;;;6.15;;
23782;SDS011;12071;50.850;4.446;2023-10-31T13:59:17;10.10;;;7.00;;
23782;SDS011;12071;50.850;4.446;2023-10-31T14:01:46;8.43;;;6.63;;
23782;SDS011;12071;50.850;4.446;2023-10-31T14:04:11;7.78;;;6.10;;
23782;SDS011;12071;50.850;4.446;2023-10-31T14:06:40;10.20;;;6.57;;
23782;SDS011;12071;50.850;4.446;2023-10-31T14:09:07;10.45;;;6.45;;
23782;SDS011;12071;50.850;4.446;2023-10-31T14:11:34;9.70;;;6.35;;
23782;SDS011;12071;50.850;4.446;2023-10-31T14:14:00;10.52;;;6.18;;
23782;SDS011;12071;50.850;4.446;2023-10-31T14:16:31;8.48;;;6.03;;
23782;SDS011;12071;50.850;4.446;2023-10-31T14:18:57;7.63;;;5.88;;
23782;SDS011;12071;50.850;4.446;2023-10-31T14:21:23;8.13;;;5.82;;
23782;SDS011;12071;50.850;4.446;2023-10-31T14:23:51;10.30;;;5.93;;
23782;SDS011;12071;50.850;4.446;2023-10-31T14:26:20;9.38;;;5.65;;
23782;SDS011;12071;50.850;4.446;2023-10-31T14:28:46;7.82;;;4.90;;
23782;SDS011;12071;50.850;4.446;2023-10-31T14:31:12;8.85;;;5.15;;
23782;SDS011;12071;50.850;4.446;2023-10-31T14:33:41;11.38;;;5.30;;
23782;SDS011;12071;50.850;4.446;2023-10-31T14:36:07;10.05;;;5.35;;
23782;SDS011;12071;50.850;4.446;2023-10-31T14:38:35;8.20;;;4.60;;
23782;SDS011;12071;50.850;4.446;2023-10-31T14:41:01;8.05;;;4.97;;
23782;SDS011;12071;50.850;4.446;2023-10-31T14:43:28;9.45;;;4.57;;